Time;durP1;ratioP1;P1;durP2;ratioP2;P2;SDS_P1;SDS_P2;PMS_P1;PMS_P2;Temp;Humidity;BMP_temperature;BMP_pressure;BME280_temperature;BME280_humidity;BME280_pressure;Samples;Min_cycle;Max_cycle;Signal;HPM_P1;HPM_P2
2023/06/10 00:00:50;;;;;;;36.75;26.77;;;;;;;;;;5069252;28;20053;-65
2023/06/10 00:03:17;;;;;;;56.63;33.78;;;;;;;;;;5075485;28;20405;-67
2023/06/10 00:05:44;;;;;;;73.97;31.17;;;;;;;;;;5080687;28;20071;-68
2023/06/10 00:08:11;;;;;;;45.55;24.70;;;;;;;;;;5078794;28;20047;-67
2023/06/10 00:10:38;;;;;;;81.20;28.52;;;;;;;;;;5077848;28;20043;-69
2023/06/10 00:13:08;;;;;;;52.67;25.70;;;;;;;;;;5076593;28;20102;-68
2023/06/10 00:15:37;;;;;;;48.97;25.08;;;;;;;;;;5082184;28;20062;-69
2023/06/10 00:18:05;;;;;;;45.47;23.35;;;;;;;;;;5087276;28;20048;-69
2023/06/10 00:20:32;;;;;;;56.42;21.13;;;;;;;;;;5088661;28;20040;-65
2023/06/10 00:23:01;;;;;;;44.10;24.77;;;;;;;;;;5084987;28;20068;-70
2023/06/10 00:25:27;;;;;;;51.53;23.25;;;;;;;;;;5081943;28;20517;-68
2023/06/10 00:27:54;;;;;;;49.53;20.85;;;;;;;;;;5074684;28;20147;-68
2023/06/10 00:30:21;;;;;;;57.58;24.48;;;;;;;;;;5086219;28;20544;-68
2023/06/10 00:32:48;;;;;;;38.15;23.77;;;;;;;;;;5084892;28;20050;-69
2023/06/10 00:35:14;;;;;;;41.08;20.17;;;;;;;;;;5087758;28;20050;-70
2023/06/10 00:37:41;;;;;;;80.88;23.70;;;;;;;;;;5066557;28;20150;-65
2023/06/10 00:40:11;;;;;;;46.75;21.40;;;;;;;;;;5085864;28;20040;-64
2023/06/10 00:42:38;;;;;;;40.47;21.52;;;;;;;;;;5085979;28;20119;-69
2023/06/10 00:45:05;;;;;;;24.70;20.48;;;;;;;;;;5084792;28;20481;-68
2023/06/10 00:47:32;;;;;;;37.03;20.73;;;;;;;;;;5087087;28;20489;-68
2023/06/10 00:49:59;;;;;;;62.00;21.35;;;;;;;;;;5085716;28;20056;-70
2023/06/10 00:52:28;;;;;;;52.13;20.90;;;;;;;;;;5082913;28;20048;-68
2023/06/10 00:54:55;;;;;;;43.42;21.58;;;;;;;;;;5083202;28;20123;-68
2023/06/10 00:57:21;;;;;;;52.95;21.33;;;;;;;;;;5068314;28;20040;-64
2023/06/10 00:59:49;;;;;;;30.77;18.30;;;;;;;;;;5069613;28;20052;-68
2023/06/10 01:02:16;;;;;;;40.30;18.73;;;;;;;;;;5089879;28;20044;-68
2023/06/10 01:04:43;;;;;;;80.90;23.25;;;;;;;;;;5067398;28;20040;-68
2023/06/10 01:07:15;;;;;;;37.08;19.13;;;;;;;;;;5081649;28;20513;-67
2023/06/10 01:09:50;;;;;;;52.30;18.70;;;;;;;;;;5084771;28;20040;-68
2023/06/10 01:12:20;;;;;;;46.60;18.27;;;;;;;;;;5084215;28;20048;-67
2023/06/10 01:14:48;;;;;;;44.65;18.17;;;;;;;;;;5067646;28;20043;-64
2023/06/10 01:17:16;;;;;;;51.63;16.88;;;;;;;;;;5090117;28;20506;-68
2023/06/10 01:19:44;;;;;;;52.80;16.52;;;;;;;;;;5088357;28;20055;-68
2023/06/10 01:22:15;;;;;;;28.33;13.05;;;;;;;;;;5074637;28;20087;-68
2023/06/10 01:24:43;;;;;;;45.33;18.10;;;;;;;;;;5085163;28;20032;-67
2023/06/10 01:27:12;;;;;;;32.83;11.45;;;;;;;;;;5082422;28;20536;-64
2023/06/10 01:29:44;;;;;;;28.52;14.32;;;;;;;;;;5081291;28;20661;-67
2023/06/10 01:32:18;;;;;;;38.50;12.80;;;;;;;;;;5067231;28;20028;-65
2023/06/10 01:34:45;;;;;;;42.40;12.88;;;;;;;;;;5066712;28;20052;-68
2023/06/10 01:37:13;;;;;;;31.08;14.45;;;;;;;;;;5082736;28;20079;-68
2023/06/10 01:39:40;;;;;;;27.60;9.85;;;;;;;;;;5064709;28;20055;-67
2023/06/10 01:42:09;;;;;;;33.33;11.10;;;;;;;;;;5081258;28;20072;-65
2023/06/10 01:44:38;;;;;;;41.22;12.20;;;;;;;;;;5083016;28;20131;-68
2023/06/10 01:47:07;;;;;;;43.45;12.07;;;;;;;;;;5084771;28;20499;-68
2023/06/10 01:49:33;;;;;;;94.22;16.95;;;;;;;;;;5079890;28;20048;-68
2023/06/10 01:52:00;;;;;;;34.05;12.98;;;;;;;;;;5061675;28;20048;-68
2023/06/10 01:54:27;;;;;;;42.65;13.30;;;;;;;;;;5062951;28;20490;-64
2023/06/10 01:56:53;;;;;;;30.52;14.02;;;;;;;;;;5083605;28;20052;-67
2023/06/10 01:59:20;;;;;;;28.85;12.60;;;;;;;;;;5082851;28;20044;-66
2023/06/10 02:01:47;;;;;;;446.02;66.15;;;;;;;;;;5052250;22;20040;-69
2023/06/10 02:04:14;;;;;;;49.53;16.65;;;;;;;;;;4982100;28;20503;-68
2023/06/10 02:06:42;;;;;;;58.95;16.58;;;;;;;;;;5006833;28;20133;-69
2023/06/10 02:09:09;;;;;;;70.68;17.63;;;;;;;;;;5010350;28;20389;-67
2023/06/10 02:11:36;;;;;;;42.63;14.40;;;;;;;;;;5022042;28;20100;-71
2023/06/10 02:14:03;;;;;;;58.67;17.65;;;;;;;;;;5022735;28;20160;-67
2023/06/10 02:16:31;;;;;;;78.45;19.05;;;;;;;;;;5036358;28;20053;-68
2023/06/10 02:18:58;;;;;;;44.17;15.18;;;;;;;;;;5019031;28;20088;-67
2023/06/10 02:21:27;;;;;;;63.30;17.75;;;;;;;;;;5023244;28;20101;-70
2023/06/10 02:23:53;;;;;;;39.92;14.20;;;;;;;;;;5019229;28;20053;-68
2023/06/10 02:26:21;;;;;;;52.33;14.65;;;;;;;;;;5022768;28;20048;-68
2023/06/10 02:28:48;;;;;;;70.32;16.35;;;;;;;;;;5037434;28;20057;-70
2023/06/10 02:31:18;;;;;;;29.75;14.20;;;;;;;;;;5006622;28;20116;-70
2023/06/10 02:33:46;;;;;;;38.45;13.00;;;;;;;;;;5020032;28;20074;-70
2023/06/10 02:36:15;;;;;;;43.40;14.00;;;;;;;;;;5025802;28;20051;-70
2023/06/10 02:38:42;;;;;;;49.85;13.02;;;;;;;;;;5000709;28;20037;-68
2023/06/10 02:41:10;;;;;;;52.35;14.98;;;;;;;;;;5020029;28;20178;-67
2023/06/10 02:43:37;;;;;;;93.00;16.45;;;;;;;;;;5021002;28;20045;-68
2023/06/10 02:46:04;;;;;;;18.23;10.50;;;;;;;;;;5023869;28;20052;-68
2023/06/10 02:48:40;;;;;;;60.67;15.95;;;;;;;;;;5012874;28;20060;-68
2023/06/10 02:51:07;;;;;;;44.05;14.68;;;;;;;;;;5019192;28;20029;-69
2023/06/10 02:53:38;;;;;;;44.45;11.88;;;;;;;;;;5007287;28;20566;-68
2023/06/10 02:56:09;;;;;;;69.72;14.73;;;;;;;;;;5032380;28;20115;-69
2023/06/10 02:58:36;;;;;;;81.85;16.52;;;;;;;;;;5020616;28;20049;-68
2023/06/10 03:01:05;;;;;;;42.78;11.35;;;;;;;;;;5005499;28;20491;-68
2023/06/10 03:03:42;;;;;;;69.28;16.27;;;;;;;;;;5017810;28;20115;-68
2023/06/10 03:06:13;;;;;;;39.20;11.90;;;;;;;;;;5006526;28;20064;-68
2023/06/10 03:08:41;;;;;;;52.95;14.40;;;;;;;;;;5001245;28;20049;-70
2023/06/10 03:11:13;;;;;;;50.67;15.93;;;;;;;;;;5010046;28;20050;-67
2023/06/10 03:13:40;;;;;;;89.60;16.42;;;;;;;;;;5011717;28;20045;-68
2023/06/10 03:16:12;;;;;;;44.15;12.48;;;;;;;;;;4999196;28;20046;-68
2023/06/10 03:18:40;;;;;;;56.28;13.32;;;;;;;;;;5002657;28;20450;-67
2023/06/10 03:21:08;;;;;;;64.72;11.77;;;;;;;;;;5036524;28;20041;-69
2023/06/10 03:23:42;;;;;;;54.85;12.15;;;;;;;;;;5000008;28;20057;-67
2023/06/10 03:26:11;;;;;;;31.63;8.63;;;;;;;;;;5024513;28;20102;-68
2023/06/10 03:28:40;;;;;;;64.25;13.77;;;;;;;;;;4988444;28;20060;-67
2023/06/10 03:31:08;;;;;;;37.25;11.40;;;;;;;;;;5000455;28;20042;-68
2023/06/10 03:33:36;;;;;;;56.25;11.82;;;;;;;;;;5005688;28;20434;-69
2023/06/10 03:36:03;;;;;;;55.25;14.50;;;;;;;;;;5004007;28;20049;-67
2023/06/10 03:38:30;;;;;;;29.65;8.45;;;;;;;;;;5034331;28;20497;-68
2023/06/10 03:40:57;;;;;;;62.15;13.82;;;;;;;;;;5004061;28;20104;-68
2023/06/10 03:43:25;;;;;;;48.67;13.00;;;;;;;;;;5002259;28;20179;-67
2023/06/10 03:45:53;;;;;;;26.63;10.00;;;;;;;;;;5007821;28;20057;-68
2023/06/10 03:48:20;;;;;;;25.67;9.23;;;;;;;;;;5004431;28;20057;-68
2023/06/10 03:50:50;;;;;;;50.78;12.02;;;;;;;;;;5031668;28;20054;-68
2023/06/10 03:53:19;;;;;;;38.65;11.23;;;;;;;;;;5010164;28;20048;-70
2023/06/10 03:55:46;;;;;;;73.30;14.90;;;;;;;;;;5036609;28;20038;-67
2023/06/10 03:58:15;;;;;;;27.95;11.93;;;;;;;;;;5021232;28;20085;-67
2023/06/10 04:00:42;;;;;;;34.10;16.10;;;;;;;;;;5003260;28;20061;-67
2023/06/10 04:03:09;;;;;;;42.70;21.75;;;;;;;;;;5023959;28;20053;-68
2023/06/10 04:05:41;;;;;;;34.35;22.77;;;;;;;;;;5010058;28;20084;-68
2023/06/10 04:08:08;;;;;;;34.03;25.15;;;;;;;;;;5022419;28;20052;-69
2023/06/10 04:10:35;;;;;;;78.60;25.60;;;;;;;;;;5017772;28;20491;-69
2023/06/10 04:13:03;;;;;;;71.70;25.75;;;;;;;;;;5020037;28;20048;-68
2023/06/10 04:15:36;;;;;;;33.22;26.00;;;;;;;;;;5018912;28;20038;-67
2023/06/10 04:18:08;;;;;;;37.67;25.48;;;;;;;;;;5006625;28;20380;-68
2023/06/10 04:20:36;;;;;;;46.65;33.35;;;;;;;;;;5009418;28;20368;-68
2023/06/10 04:23:03;;;;;;;66.55;38.22;;;;;;;;;;5004051;28;20136;-69
2023/06/10 04:25:30;;;;;;;70.03;30.33;;;;;;;;;;5001637;28;20053;-70
2023/06/10 04:27:57;;;;;;;38.33;33.90;;;;;;;;;;5003091;28;20132;-68
2023/06/10 04:30:25;;;;;;;60.65;43.97;;;;;;;;;;5006880;28;20092;-69
2023/06/10 04:32:52;;;;;;;88.90;47.80;;;;;;;;;;5009017;28;20462;-69
2023/06/10 04:35:19;;;;;;;48.67;43.20;;;;;;;;;;5033802;28;20047;-68
2023/06/10 04:37:47;;;;;;;80.93;42.67;;;;;;;;;;5003450;28;25348;-68
2023/06/10 04:40:15;;;;;;;64.47;44.50;;;;;;;;;;5001566;28;20113;-68
2023/06/10 04:42:44;;;;;;;53.63;44.97;;;;;;;;;;5004590;28;20045;-68
2023/06/10 04:45:12;;;;;;;65.60;46.15;;;;;;;;;;5006886;28;20108;-70
2023/06/10 04:47:40;;;;;;;55.42;40.53;;;;;;;;;;5019334;28;20045;-68
2023/06/10 04:50:07;;;;;;;52.45;42.50;;;;;;;;;;4988772;28;20053;-68
2023/06/10 04:52:34;;;;;;;102.88;55.22;;;;;;;;;;5010756;28;20117;-67
2023/06/10 04:55:01;;;;;;;74.00;43.97;;;;;;;;;;5004751;28;20041;-68
2023/06/10 04:57:28;;;;;;;53.63;45.55;;;;;;;;;;5020355;28;20049;-68
2023/06/10 04:59:55;;;;;;;54.70;47.03;;;;;;;;;;5018690;28;20050;-67
2023/06/10 05:02:22;;;;;;;68.53;48.05;;;;;;;;;;5021758;28;20041;-67
2023/06/10 05:04:49;;;;;;;50.70;42.38;;;;;;;;;;5040011;28;20198;-67
2023/06/10 05:07:15;;;;;;;51.78;46.60;;;;;;;;;;5006101;28;20055;-68
2023/06/10 05:09:42;;;;;;;110.53;52.90;;;;;;;;;;5020839;28;20033;-67
2023/06/10 05:12:10;;;;;;;52.08;46.63;;;;;;;;;;5013987;28;20057;-69
2023/06/10 05:14:37;;;;;;;57.63;43.58;;;;;;;;;;5006113;28;20041;-67
2023/06/10 05:17:05;;;;;;;112.45;52.17;;;;;;;;;;5024343;28;20530;-67
2023/06/10 05:19:32;;;;;;;96.65;45.90;;;;;;;;;;5000481;28;20045;-69
2023/06/10 05:21:59;;;;;;;45.72;37.25;;;;;;;;;;5008219;28;20407;-67
2023/06/10 05:24:26;;;;;;;62.47;40.83;;;;;;;;;;5006397;28;20518;-67
2023/06/10 05:26:53;;;;;;;50.45;37.50;;;;;;;;;;5028260;28;20086;-69
2023/06/10 05:29:20;;;;;;;38.67;34.05;;;;;;;;;;5005850;28;20052;-67
2023/06/10 05:31:47;;;;;;;118.85;40.28;;;;;;;;;;5010706;28;20498;-67
2023/06/10 05:34:14;;;;;;;36.63;30.35;;;;;;;;;;5006634;28;20038;-69
2023/06/10 05:36:41;;;;;;;46.22;32.30;;;;;;;;;;5012570;28;20491;-68
2023/06/10 05:39:09;;;;;;;72.32;33.90;;;;;;;;;;5001935;28;20049;-68
2023/06/10 05:41:36;;;;;;;59.58;41.13;;;;;;;;;;5008662;28;20049;-68
2023/06/10 05:44:04;;;;;;;61.60;34.45;;;;;;;;;;5024773;28;20145;-69
2023/06/10 05:46:31;;;;;;;72.30;45.42;;;;;;;;;;4987647;28;20132;-68
2023/06/10 05:48:58;;;;;;;58.08;36.08;;;;;;;;;;4992524;28;20097;-67
2023/06/10 05:51:25;;;;;;;52.80;40.03;;;;;;;;;;5024502;28;20049;-69
2023/06/10 05:53:52;;;;;;;70.40;40.63;;;;;;;;;;5004772;28;20065;-68
2023/06/10 05:56:22;;;;;;;58.17;44.35;;;;;;;;;;5005341;28;20053;-69
2023/06/10 05:58:49;;;;;;;73.22;37.17;;;;;;;;;;4987254;28;20966;-69
2023/06/10 06:01:19;;;;;;;93.88;43.47;;;;;;;;;;5021999;28;20049;-69
2023/06/10 06:03:47;;;;;;;51.60;43.60;;;;;;;;;;5018203;28;20089;-69
2023/06/10 06:06:15;;;;;;;56.80;38.75;;;;;;;;;;4997737;28;20057;-70
2023/06/10 06:08:44;;;;;;;71.05;45.92;;;;;;;;;;5016090;28;20069;-70
2023/06/10 06:11:13;;;;;;;81.07;47.75;;;;;;;;;;5030893;28;20061;-68
2023/06/10 06:13:41;;;;;;;134.38;52.28;;;;;;;;;;5021282;28;20048;-67
2023/06/10 06:16:09;;;;;;;53.55;43.78;;;;;;;;;;5023350;28;20109;-68
2023/06/10 06:18:37;;;;;;;60.22;50.25;;;;;;;;;;5006978;28;20129;-68
2023/06/10 06:21:04;;;;;;;72.63;50.85;;;;;;;;;;5002950;28;20038;-67
2023/06/10 06:23:31;;;;;;;88.13;63.35;;;;;;;;;;5018362;28;20051;-68
2023/06/10 06:26:01;;;;;;;165.75;62.90;;;;;;;;;;5036429;28;20042;-70
2023/06/10 06:28:30;;;;;;;112.72;58.22;;;;;;;;;;4998222;28;20034;-70
2023/06/10 06:30:59;;;;;;;85.47;48.80;;;;;;;;;;5038335;28;20038;-69
2023/06/10 06:33:27;;;;;;;69.22;50.17;;;;;;;;;;5035701;28;20034;-67
2023/06/10 06:35:55;;;;;;;85.65;55.38;;;;;;;;;;5022254;28;20108;-67
2023/06/10 06:38:22;;;;;;;150.50;101.93;;;;;;;;;;5021757;28;20037;-70
2023/06/10 06:40:50;;;;;;;101.70;67.40;;;;;;;;;;5019634;28;20734;-68
2023/06/10 06:43:18;;;;;;;72.65;65.78;;;;;;;;;;5022909;28;20042;-66
2023/06/10 06:46:05;;;;;;;128.27;73.25;;;;;;;;;;5005910;28;20079;-68
2023/06/10 06:48:50;;;;;;;104.13;71.60;;;;;;;;;;5002868;28;20072;-69
2023/06/10 06:51:18;;;;;;;131.10;47.25;;;;;;;;;;5021786;28;20038;-67
2023/06/10 06:53:45;;;;;;;128.32;56.45;;;;;;;;;;5001764;28;20045;-68
2023/06/10 06:56:13;;;;;;;76.03;47.30;;;;;;;;;;5015354;28;20482;-71
2023/06/10 06:58:41;;;;;;;110.80;57.78;;;;;;;;;;5020722;28;20049;-70
2023/06/10 07:01:08;;;;;;;63.33;41.17;;;;;;;;;;5023850;28;20088;-69
2023/06/10 07:03:35;;;;;;;65.15;45.03;;;;;;;;;;5022243;28;20050;-66
2023/06/10 07:06:01;;;;;;;76.63;41.42;;;;;;;;;;5025809;28;20033;-67
2023/06/10 07:08:28;;;;;;;57.58;36.40;;;;;;;;;;5020232;28;20038;-67
2023/06/10 07:10:55;;;;;;;60.30;39.50;;;;;;;;;;5004364;28;20403;-67
2023/06/10 07:13:21;;;;;;;47.60;30.40;;;;;;;;;;5002724;28;20069;-67
2023/06/10 07:15:49;;;;;;;60.63;40.05;;;;;;;;;;5023172;28;20034;-66
2023/06/10 07:18:19;;;;;;;76.43;42.95;;;;;;;;;;5009851;28;20052;-68
2023/06/10 07:20:45;;;;;;;54.95;48.85;;;;;;;;;;5000991;28;20038;-68
2023/06/10 07:23:12;;;;;;;53.03;42.80;;;;;;;;;;5024117;28;20091;-68
2023/06/10 07:25:40;;;;;;;99.55;55.25;;;;;;;;;;5000494;28;20054;-67
2023/06/10 07:28:07;;;;;;;62.45;56.58;;;;;;;;;;5007312;28;20057;-69
2023/06/10 07:30:33;;;;;;;90.95;81.22;;;;;;;;;;5020387;28;20045;-67
2023/06/10 07:33:01;;;;;;;77.25;68.93;;;;;;;;;;5005540;28;20038;-67
2023/06/10 07:35:28;;;;;;;72.00;65.60;;;;;;;;;;5001032;28;20154;-66
2023/06/10 07:37:55;;;;;;;73.43;62.42;;;;;;;;;;5022650;28;20065;-67
2023/06/10 07:40:21;;;;;;;73.70;67.47;;;;;;;;;;5021250;28;20073;-66
2023/06/10 07:42:48;;;;;;;89.97;61.88;;;;;;;;;;5024579;28;20049;-67
2023/06/10 07:45:15;;;;;;;96.78;87.03;;;;;;;;;;4999831;28;20097;-69
2023/06/10 07:47:42;;;;;;;86.15;72.15;;;;;;;;;;5005016;28;20391;-67
2023/06/10 07:50:09;;;;;;;135.35;67.88;;;;;;;;;;5022780;28;20116;-66
2023/06/10 07:52:35;;;;;;;99.65;72.80;;;;;;;;;;5023242;28;20044;-67
2023/06/10 07:55:02;;;;;;;76.32;50.55;;;;;;;;;;5012834;28;20046;-67
2023/06/10 08:01:19;;;;;;;53.78;48.22;;;;;;;;;;5103751;22;20442;-66
2023/06/10 08:03:46;;;;;;;61.60;44.50;;;;;;;;;;5059009;28;20437;-67
2023/06/10 08:06:13;;;;;;;58.25;34.83;;;;;;;;;;5055409;28;20082;-70
2023/06/10 08:08:43;;;;;;;82.43;38.80;;;;;;;;;;5062270;28;20040;-68
2023/06/10 08:11:13;;;;;;;42.60;34.63;;;;;;;;;;5067280;28;20487;-68
2023/06/10 08:13:40;;;;;;;78.40;43.75;;;;;;;;;;5078954;28;20048;-69
2023/06/10 08:16:07;;;;;;;120.57;42.92;;;;;;;;;;5079851;28;20044;-69
2023/06/10 08:18:35;;;;;;;84.03;50.33;;;;;;;;;;5089612;28;20035;-69
2023/06/10 08:21:02;;;;;;;76.10;48.72;;;;;;;;;;5083839;28;20490;-66
2023/06/10 08:23:29;;;;;;;47.63;33.83;;;;;;;;;;5079641;28;20433;-69
2023/06/10 08:25:56;;;;;;;86.10;49.72;;;;;;;;;;5080306;28;20031;-68
2023/06/10 08:28:23;;;;;;;87.05;39.75;;;;;;;;;;5062081;28;20057;-67
2023/06/10 08:30:49;;;;;;;60.17;42.63;;;;;;;;;;5079406;28;20485;-66
2023/06/10 08:33:16;;;;;;;58.08;52.42;;;;;;;;;;5080313;28;20456;-70
2023/06/10 08:35:43;;;;;;;80.05;45.15;;;;;;;;;;5078268;28;20036;-66
2023/06/10 08:38:10;;;;;;;71.88;50.28;;;;;;;;;;5086854;28;20032;-66
2023/06/10 08:40:37;;;;;;;85.18;47.55;;;;;;;;;;5063346;28;20040;-67
2023/06/10 08:43:07;;;;;;;49.60;41.75;;;;;;;;;;5064850;28;20041;-66
2023/06/10 08:45:35;;;;;;;60.50;45.42;;;;;;;;;;5080232;28;20044;-66
2023/06/10 08:48:09;;;;;;;53.10;40.03;;;;;;;;;;5082457;28;20052;-67
2023/06/10 08:50:39;;;;;;;62.97;44.67;;;;;;;;;;5071420;28;20744;-69
2023/06/10 08:53:06;;;;;;;60.00;32.28;;;;;;;;;;5064600;28;20477;-68
2023/06/10 08:55:39;;;;;;;78.35;38.08;;;;;;;;;;5070486;28;20403;-69
2023/06/10 08:58:05;;;;;;;41.35;34.78;;;;;;;;;;5072415;28;20094;-68
2023/06/10 09:00:32;;;;;;;57.53;32.85;;;;;;;;;;5079709;28;20044;-66
2023/06/10 09:02:59;;;;;;;46.35;30.05;;;;;;;;;;5065997;28;20054;-67
2023/06/10 09:05:33;;;;;;;48.20;34.65;;;;;;;;;;5066115;28;20045;-67
2023/06/10 09:08:00;;;;;;;65.90;36.83;;;;;;;;;;5063844;28;20114;-68
2023/06/10 09:10:27;;;;;;;38.03;29.98;;;;;;;;;;5063512;28;20040;-66
2023/06/10 09:12:54;;;;;;;81.20;33.88;;;;;;;;;;5063466;28;20410;-67
2023/06/10 09:15:20;;;;;;;66.45;59.67;;;;;;;;;;5079164;28;20127;-66
2023/06/10 09:17:47;;;;;;;73.65;63.05;;;;;;;;;;5061196;28;20037;-69
2023/06/10 09:20:14;;;;;;;64.97;58.97;;;;;;;;;;5085239;28;20047;-70
2023/06/10 09:22:42;;;;;;;110.13;68.10;;;;;;;;;;5081321;28;20508;-68
2023/06/10 09:25:10;;;;;;;61.58;53.65;;;;;;;;;;5083729;28;20051;-65
2023/06/10 09:27:50;;;;;;;52.53;47.15;;;;;;;;;;5066189;28;20433;-65
2023/06/10 09:30:25;;;;;;;68.30;53.83;;;;;;;;;;5078847;28;20068;-67
2023/06/10 09:32:53;;;;;;;110.65;56.60;;;;;;;;;;5081235;28;20041;-66
2023/06/10 09:35:20;;;;;;;71.20;60.38;;;;;;;;;;5084199;28;20040;-68
2023/06/10 09:37:49;;;;;;;127.18;59.00;;;;;;;;;;5082426;28;20044;-66
2023/06/10 09:40:16;;;;;;;55.83;49.42;;;;;;;;;;5064697;28;20055;-66
2023/06/10 09:42:42;;;;;;;48.13;42.88;;;;;;;;;;5064369;28;20047;-66
2023/06/10 09:45:09;;;;;;;80.93;49.38;;;;;;;;;;5078936;28;20068;-65
2023/06/10 09:47:36;;;;;;;65.95;54.47;;;;;;;;;;5086060;28;20090;-67
2023/06/10 09:50:03;;;;;;;66.90;52.55;;;;;;;;;;5062148;28;20055;-65
2023/06/10 09:52:30;;;;;;;59.45;49.53;;;;;;;;;;5064603;28;20076;-66
2023/06/10 09:55:01;;;;;;;52.60;47.28;;;;;;;;;;5063660;28;20052;-66
2023/06/10 09:57:35;;;;;;;57.10;49.80;;;;;;;;;;5066658;28;20040;-67
2023/06/10 10:00:07;;;;;;;50.20;45.20;;;;;;;;;;5063482;28;20036;-67
2023/06/10 10:02:55;;;;;;;79.63;55.33;;;;;;;;;;5060642;28;20052;-66
2023/06/10 10:05:22;;;;;;;55.58;49.47;;;;;;;;;;5064143;28;20067;-67
2023/06/10 10:07:50;;;;;;;90.80;58.53;;;;;;;;;;5060533;28;20139;-66
2023/06/10 10:10:18;;;;;;;57.65;51.90;;;;;;;;;;5064176;28;20048;-67
2023/06/10 10:12:50;;;;;;;56.20;50.72;;;;;;;;;;5058542;28;20131;-65
2023/06/10 10:15:18;;;;;;;82.78;53.72;;;;;;;;;;5060230;28;20067;-65
2023/06/10 10:17:47;;;;;;;58.03;46.83;;;;;;;;;;5062001;28;20045;-64
2023/06/10 10:20:17;;;;;;;52.28;45.20;;;;;;;;;;5063392;28;20036;-65
2023/06/10 10:22:46;;;;;;;82.63;54.45;;;;;;;;;;5075320;28;20041;-66
2023/06/10 10:25:22;;;;;;;73.15;54.47;;;;;;;;;;5054537;28;20503;-68
2023/06/10 10:28:12;;;;;;;54.42;48.72;;;;;;;;;;5058861;28;20063;-67
2023/06/10 10:30:40;;;;;;;55.30;49.03;;;;;;;;;;5050691;28;20103;-67
2023/06/10 10:33:12;;;;;;;60.05;45.25;;;;;;;;;;5059049;28;20056;-66
2023/06/10 10:35:39;;;;;;;74.75;50.95;;;;;;;;;;5044461;28;20040;-66
2023/06/10 10:38:06;;;;;;;68.15;48.45;;;;;;;;;;5063436;28;20041;-66
2023/06/10 10:40:33;;;;;;;98.93;67.47;;;;;;;;;;5058651;28;20041;-66
2023/06/10 10:42:59;;;;;;;55.83;50.42;;;;;;;;;;5058778;28;20513;-66
2023/06/10 10:45:29;;;;;;;59.38;52.95;;;;;;;;;;5062114;28;20047;-67
2023/06/10 10:47:57;;;;;;;74.13;65.30;;;;;;;;;;5060202;28;20137;-66
2023/06/10 10:50:24;;;;;;;74.50;66.47;;;;;;;;;;5063507;28;20044;-65
2023/06/10 10:52:54;;;;;;;75.53;68.38;;;;;;;;;;5057443;28;20043;-65
2023/06/10 10:55:21;;;;;;;82.22;73.80;;;;;;;;;;5059979;28;20115;-64
2023/06/10 10:57:58;;;;;;;58.30;46.75;;;;;;;;;;5060648;28;20544;-64
2023/06/10 11:00:32;;;;;;;65.85;59.38;;;;;;;;;;5058616;28;20072;-64
2023/06/10 11:03:08;;;;;;;64.78;58.40;;;;;;;;;;5064004;28;20045;-64
2023/06/10 11:05:41;;;;;;;67.22;53.90;;;;;;;;;;5063720;28;20091;-69
2023/06/10 11:08:09;;;;;;;62.25;53.92;;;;;;;;;;5066194;28;20135;-66
2023/06/10 11:10:39;;;;;;;64.80;52.97;;;;;;;;;;5059233;28;20436;-65
2023/06/10 11:13:08;;;;;;;58.15;49.35;;;;;;;;;;5067551;28;20091;-66
2023/06/10 11:15:38;;;;;;;38.58;34.60;;;;;;;;;;5061042;28;20142;-65
2023/06/10 11:18:11;;;;;;;27.77;24.40;;;;;;;;;;5060589;28;20040;-67
2023/06/10 11:20:42;;;;;;;33.50;20.42;;;;;;;;;;5061788;28;20045;-67
2023/06/10 11:23:08;;;;;;;66.75;17.77;;;;;;;;;;5062880;28;20067;-67
2023/06/10 11:25:39;;;;;;;36.25;16.15;;;;;;;;;;5059644;28;20451;-68
2023/06/10 11:28:17;;;;;;;17.92;13.18;;;;;;;;;;5060145;28;20080;-67
2023/06/10 11:30:44;;;;;;;88.95;16.30;;;;;;;;;;5059050;28;20401;-66
2023/06/10 11:33:14;;;;;;;66.80;16.15;;;;;;;;;;5057454;28;20079;-65
2023/06/10 11:35:42;;;;;;;50.30;15.88;;;;;;;;;;5059193;28;20036;-66
2023/06/10 11:38:09;;;;;;;40.28;13.63;;;;;;;;;;5060246;28;20036;-65
2023/06/10 11:40:36;;;;;;;32.95;13.82;;;;;;;;;;5061239;28;20371;-66
2023/06/10 11:43:04;;;;;;;33.63;12.90;;;;;;;;;;5063698;28;20098;-64
2023/06/10 11:45:30;;;;;;;22.92;14.77;;;;;;;;;;5059331;28;20053;-65
2023/06/10 11:48:00;;;;;;;37.13;24.52;;;;;;;;;;5060750;28;20093;-67
2023/06/10 11:50:27;;;;;;;35.05;5.82;;;;;;;;;;5057186;28;20543;-67
2023/06/10 11:52:55;;;;;;;158.02;17.52;;;;;;;;;;5092797;22;20071;-69
2023/06/10 11:55:22;;;;;;;24.13;6.32;;;;;;;;;;5079876;28;20052;-64
2023/06/10 11:57:57;;;;;;;20.13;4.95;;;;;;;;;;5080224;28;20050;-69
2023/06/10 12:00:24;;;;;;;146.07;134.48;;;;;;;;;;5061413;28;20047;-63
2023/06/10 12:02:57;;;;;;;309.63;286.10;;;;;;;;;;5061980;28;20055;-66
2023/06/10 12:05:24;;;;;;;;;;;;;;;;;;5061216;28;20458;-61
2023/06/10 12:08:07;;;;;;;125.25;83.43;;;;;;;;;;5080390;28;19924;-64
2023/06/10 12:10:39;;;;;;;218.50;200.93;;;;;;;;;;5061863;28;20045;-62
2023/06/10 12:13:06;;;;;;;276.00;254.18;;;;;;;;;;5078469;28;20036;-62
2023/06/10 12:15:33;;;;;;;163.30;150.85;;;;;;;;;;5062655;28;20406;-62
2023/06/10 12:17:59;;;;;;;856.08;778.75;;;;;;;;;;5062792;28;20044;-58
2023/06/10 12:20:29;;;;;;;365.30;337.20;;;;;;;;;;5059820;28;20075;-61
2023/06/10 12:22:56;;;;;;;277.02;249.57;;;;;;;;;;5062051;28;20512;-60
2023/06/10 12:25:27;;;;;;;384.05;276.83;;;;;;;;;;5076102;28;20044;-61
2023/06/10 12:27:55;;;;;;;80.25;64.88;;;;;;;;;;5080119;28;20036;-63
2023/06/10 12:30:24;;;;;;;62.72;21.95;;;;;;;;;;5077936;28;20043;-63
2023/06/10 12:32:52;;;;;;;47.22;8.43;;;;;;;;;;5063749;28;20048;-66
2023/06/10 12:35:20;;;;;;;49.35;24.73;;;;;;;;;;5064253;28;20118;-64
2023/06/10 12:38:17;;;;;;;81.15;17.30;;;;;;;;;;5057520;28;20090;-65
2023/06/10 12:40:44;;;;;;;78.00;10.85;;;;;;;;;;5055111;28;20060;-66
2023/06/10 12:43:11;;;;;;;37.05;6.30;;;;;;;;;;5062505;28;20056;-66
2023/06/10 12:45:40;;;;;;;52.65;7.70;;;;;;;;;;5079628;28;20047;-66
2023/06/10 12:48:11;;;;;;;69.90;8.77;;;;;;;;;;5076193;28;20037;-64
2023/06/10 12:50:39;;;;;;;36.15;6.65;;;;;;;;;;5062190;28;20485;-65
2023/06/10 12:53:05;;;;;;;42.33;6.70;;;;;;;;;;5067781;28;20048;-64
2023/06/10 12:55:32;;;;;;;22.83;5.40;;;;;;;;;;5080199;28;20051;-66
2023/06/10 12:58:00;;;;;;;41.15;6.78;;;;;;;;;;5060199;28;20529;-63
2023/06/10 13:00:29;;;;;;;23.83;5.63;;;;;;;;;;5078454;28;20035;-64
2023/06/10 13:02:56;;;;;;;43.08;7.93;;;;;;;;;;5073735;28;20110;-68
2023/06/10 13:05:23;;;;;;;48.05;7.05;;;;;;;;;;5081003;28;20040;-64
2023/06/10 13:07:50;;;;;;;103.32;14.63;;;;;;;;;;5058981;28;20051;-63
2023/06/10 13:10:17;;;;;;;40.70;27.17;;;;;;;;;;5075611;28;20143;-68
2023/06/10 13:12:44;;;;;;;51.67;8.30;;;;;;;;;;5079948;28;20502;-63
2023/06/10 13:15:14;;;;;;;38.50;8.38;;;;;;;;;;5082733;28;20048;-64
2023/06/10 13:17:42;;;;;;;44.45;8.68;;;;;;;;;;5089284;28;20044;-64
2023/06/10 13:20:09;;;;;;;54.65;8.55;;;;;;;;;;5068625;28;20061;-64
2023/06/10 13:22:36;;;;;;;34.03;7.40;;;;;;;;;;5058165;28;20052;-63
2023/06/10 13:25:03;;;;;;;52.55;7.25;;;;;;;;;;5077520;28;20527;-64
2023/06/10 13:27:30;;;;;;;54.08;7.95;;;;;;;;;;5059303;28;20041;-62
2023/06/10 13:29:57;;;;;;;77.63;9.95;;;;;;;;;;5062823;28;20056;-64
2023/06/10 13:32:24;;;;;;;41.05;6.32;;;;;;;;;;5065423;28;20499;-65
2023/06/10 13:34:51;;;;;;;89.00;11.95;;;;;;;;;;5083193;28;20036;-65
2023/06/10 13:37:17;;;;;;;36.10;6.93;;;;;;;;;;5071706;28;20071;-65
2023/06/10 13:39:48;;;;;;;54.45;7.70;;;;;;;;;;5074337;28;20052;-66
2023/06/10 13:42:15;;;;;;;50.45;7.90;;;;;;;;;;5086328;28;20040;-66
2023/06/10 13:44:41;;;;;;;39.45;6.30;;;;;;;;;;5079723;28;20044;-65
2023/06/10 13:47:08;;;;;;;62.00;7.95;;;;;;;;;;5070077;28;20044;-66
2023/06/10 13:49:35;;;;;;;34.60;5.53;;;;;;;;;;5089897;28;20098;-66
2023/06/10 13:52:04;;;;;;;34.38;5.90;;;;;;;;;;5067037;28;20520;-66
2023/06/10 13:54:31;;;;;;;43.75;6.93;;;;;;;;;;5085434;28;20052;-66
2023/06/10 13:56:58;;;;;;;51.22;7.00;;;;;;;;;;5087353;28;20037;-70
2023/06/10 13:59:24;;;;;;;54.60;8.48;;;;;;;;;;5068828;28;20465;-68
2023/06/10 14:01:51;;;;;;;978.78;890.80;;;;;;;;;;5067757;28;20048;-66
2023/06/10 14:04:18;;;;;;;811.63;745.50;;;;;;;;;;5087116;28;20043;-66
2023/06/10 14:06:45;;;;;;;849.90;783.10;;;;;;;;;;5081219;28;20036;-67
2023/06/10 14:09:12;;;;;;;861.70;792.83;;;;;;;;;;5060091;28;20048;-68
2023/06/10 14:11:39;;;;;;;852.47;781.47;;;;;;;;;;5081595;28;20083;-68
2023/06/10 14:14:06;;;;;;;780.20;710.25;;;;;;;;;;5079781;28;20050;-68
2023/06/10 14:16:33;;;;;;;803.00;739.67;;;;;;;;;;5092530;28;20079;-67
2023/06/10 14:19:00;;;;;;;736.50;674.28;;;;;;;;;;5066297;28;20390;-68
2023/06/10 14:21:27;;;;;;;939.17;863.33;;;;;;;;;;5086542;28;20047;-66
2023/06/10 14:23:54;;;;;;;847.28;772.70;;;;;;;;;;5088907;28;20420;-67
2023/06/10 14:26:21;;;;;;;856.42;786.17;;;;;;;;;;5061918;28;20045;-67